createdAt,value
2023-03-21T00:02:43.574Z,26.18
2023-03-21T00:06:42.496Z,26.43
2023-03-21T00:10:44.005Z,26.32
2023-03-21T00:14:42.531Z,26.77
2023-03-21T00:18:42.619Z,26.95
2023-03-21T00:22:42.740Z,27.41
2023-03-21T00:26:42.816Z,28.08
2023-03-21T00:30:42.825Z,25.98
2023-03-21T00:34:53.704Z,26.56
2023-03-21T00:38:43.924Z,26.99
2023-03-21T00:42:42.849Z,25.50
2023-03-21T00:46:51.709Z,27.00
2023-03-21T00:50:43.809Z,27.60
2023-03-21T00:54:42.762Z,27.86
2023-03-21T00:58:42.757Z,28.17
2023-03-21T01:02:43.470Z,26.68
2023-03-21T01:06:42.882Z,26.71
2023-03-21T01:10:42.913Z,26.64
2023-03-21T01:14:43.032Z,25.37
2023-03-21T01:18:43.081Z,26.22
2023-03-21T01:22:43.140Z,26.31
2023-03-21T01:26:43.220Z,25.24
2023-03-21T01:30:43.299Z,26.57
2023-03-21T01:34:43.368Z,27.21
2023-03-21T01:38:43.435Z,26.70
2023-03-21T01:42:43.586Z,25.16
2023-03-21T01:46:53.965Z,26.17
2023-03-21T01:50:44.550Z,26.71
2023-03-21T01:54:43.534Z,27.72
2023-03-21T01:58:43.456Z,27.73
2023-03-21T02:02:43.410Z,27.60
2023-03-21T02:06:43.489Z,26.95
2023-03-21T02:10:43.625Z,25.72
2023-03-21T02:14:43.737Z,26.14
2023-03-21T02:18:44.812Z,26.19
2023-03-21T02:22:43.889Z,26.24
2023-03-21T02:26:46.478Z,28.19
2023-03-21T02:30:51.785Z,27.28
2023-03-21T02:34:44.928Z,26.49
2023-03-21T02:38:43.901Z,27.36
2023-03-21T02:42:48.892Z,26.44
2023-03-21T02:46:49.181Z,26.69
2023-03-21T02:50:44.826Z,27.02
2023-03-21T02:54:48.381Z,25.63
2023-03-21T02:58:44.731Z,25.44
2023-03-21T03:02:44.453Z,25.27
2023-03-21T03:06:43.691Z,27.37
2023-03-21T03:10:43.647Z,27.37
2023-03-21T03:15:00.329Z,26.55
2023-03-21T03:18:44.669Z,25.38
2023-03-21T03:22:43.598Z,27.14
2023-03-21T03:26:43.554Z,27.85
2023-03-21T03:30:57.121Z,25.66
2023-03-21T03:34:44.541Z,26.01
2023-03-21T03:38:43.544Z,26.65
2023-03-21T03:42:43.513Z,26.14
2023-03-21T03:46:43.681Z,27.84
2023-03-21T03:50:43.676Z,28.02
2023-03-21T03:54:43.761Z,27.77
2023-03-21T03:58:45.943Z,27.24
2023-03-21T04:02:43.944Z,27.40
2023-03-21T04:06:44.061Z,26.60
2023-03-21T04:10:44.167Z,26.32
2023-03-21T04:14:46.075Z,26.74
2023-03-21T04:18:44.231Z,25.91
2023-03-21T04:22:44.173Z,27.55
2023-03-21T04:26:44.149Z,25.98
2023-03-21T04:30:55.146Z,25.91
2023-03-21T04:34:45.106Z,27.76
2023-03-21T04:38:44.049Z,27.06
2023-03-21T04:42:44.018Z,26.00
2023-03-21T04:46:43.997Z,27.67
2023-03-21T04:50:44.111Z,27.10
2023-03-21T04:54:44.189Z,27.28
2023-03-21T04:58:44.335Z,25.68
2023-03-21T05:02:44.438Z,27.05
2023-03-21T05:06:44.524Z,25.23
2023-03-21T05:10:44.647Z,25.95
2023-03-21T05:14:44.712Z,27.73
2023-03-21T05:18:44.844Z,27.90
2023-03-21T05:22:44.936Z,28.70
2023-03-21T05:26:45.053Z,25.58
2023-03-21T05:30:45.091Z,27.21
2023-03-21T05:34:45.195Z,27.08
2023-03-21T05:38:45.321Z,27.95
2023-03-21T05:42:45.382Z,26.01
2023-03-21T05:46:45.524Z,29.10
2023-03-21T05:50:45.612Z,26.77
2023-03-21T05:54:45.685Z,29.10
2023-03-21T05:58:45.786Z,31.60
2023-03-21T06:02:46.012Z,33.49
2023-03-21T06:06:46.037Z,34.10
2023-03-21T06:10:46.219Z,30.57
2023-03-21T06:14:46.360Z,25.96
2023-03-21T06:18:46.343Z,28.67
2023-03-21T06:22:46.472Z,56.15
2023-03-21T06:26:46.514Z,66.49
2023-03-21T06:30:46.640Z,53.82
2023-03-21T06:34:46.782Z,43.53
2023-03-21T06:38:46.843Z,42.93
2023-03-21T06:42:46.881Z,47.53
2023-03-21T06:46:48.112Z,48.36
2023-03-21T06:50:48.064Z,43.61
2023-03-21T06:54:47.570Z,42.86
2023-03-21T06:58:47.572Z,45.51
2023-03-21T07:02:49.449Z,54.12
2023-03-21T07:06:47.460Z,54.44
2023-03-21T07:10:47.542Z,63.60
2023-03-21T07:14:47.410Z,68.91
2023-03-21T07:18:47.389Z,67.13
2023-03-21T07:22:47.609Z,67.27
2023-03-21T07:26:47.328Z,67.05
2023-03-21T07:30:47.293Z,69.83
2023-03-21T07:34:47.234Z,71.65
2023-03-21T07:38:51.036Z,82.75
2023-03-21T07:42:47.375Z,88.33
2023-03-21T07:46:47.148Z,105.07
2023-03-21T07:50:47.118Z,111.67
2023-03-21T07:54:47.024Z,104.63
2023-03-21T07:58:47.017Z,107.70
2023-03-21T08:02:47.561Z,91.12
2023-03-21T08:06:47.013Z,78.16
2023-03-21T08:10:47.487Z,76.56
2023-03-21T08:14:46.861Z,72.02
2023-03-21T08:18:47.138Z,75.10
2023-03-21T08:22:46.800Z,73.55
2023-03-21T08:26:46.913Z,69.64
2023-03-21T08:30:46.738Z,85.63
2023-03-21T08:34:46.837Z,98.32
2023-03-21T08:38:47.092Z,108.62
2023-03-21T08:42:47.070Z,94.20
2023-03-21T08:46:46.570Z,90.16
2023-03-21T08:50:46.537Z,90.59
2023-03-21T08:54:46.591Z,89.51
2023-03-21T08:58:46.491Z,83.14
2023-03-21T09:02:46.423Z,85.66
2023-03-21T09:06:46.428Z,83.49
2023-03-21T09:10:46.404Z,83.62
2023-03-21T09:14:46.438Z,84.32
2023-03-21T09:18:46.407Z,86.02
2023-03-21T09:22:46.593Z,82.77
2023-03-21T09:26:56.902Z,102.28
2023-03-21T09:30:48.587Z,104.80
2023-03-21T09:34:46.347Z,99.80
2023-03-21T09:38:47.136Z,87.68
2023-03-21T09:42:46.797Z,118.19
2023-03-21T09:46:46.461Z,84.38
2023-03-21T09:50:46.411Z,74.42
2023-03-21T09:54:46.336Z,75.04
2023-03-21T09:58:46.331Z,69.08
2023-03-21T10:02:46.460Z,75.61
2023-03-21T10:06:46.391Z,70.72
2023-03-21T10:10:46.466Z,68.18
2023-03-21T10:14:46.380Z,61.66
2023-03-21T10:18:46.495Z,56.19
2023-03-21T10:22:46.386Z,54.75
2023-03-21T10:26:46.521Z,50.85
2023-03-21T10:30:46.310Z,79.66
2023-03-21T10:34:46.472Z,72.89
2023-03-21T10:38:46.467Z,107.88
2023-03-21T10:42:47.929Z,90.24
2023-03-21T10:46:46.538Z,74.43
2023-03-21T10:50:46.485Z,66.66
2023-03-21T10:54:46.458Z,63.30
2023-03-21T10:58:46.418Z,61.19
2023-03-21T11:02:46.688Z,60.85
2023-03-21T11:06:47.648Z,57.67
2023-03-21T11:10:46.466Z,60.57
2023-03-21T11:14:46.527Z,68.43
2023-03-21T11:18:46.609Z,67.73
2023-03-21T11:22:46.643Z,66.35
2023-03-21T11:26:46.855Z,71.32
2023-03-21T11:30:46.904Z,71.62
2023-03-21T11:34:46.904Z,68.22
2023-03-21T11:38:46.870Z,59.13
2023-03-21T11:42:46.994Z,55.05
2023-03-21T11:46:50.313Z,46.32
2023-03-21T11:50:47.196Z,37.96
2023-03-21T11:54:46.828Z,35.83
2023-03-21T11:58:46.981Z,26.60
2023-03-21T12:02:46.918Z,31.83
2023-03-21T12:06:47.255Z,28.06
2023-03-21T12:10:47.629Z,25.33
2023-03-21T12:14:46.566Z,44.63
2023-03-21T12:18:46.553Z,29.07
2023-03-21T12:22:54.573Z,60.80
2023-03-21T12:26:47.379Z,62.96
2023-03-21T12:30:46.612Z,69.07
2023-03-21T12:34:46.892Z,69.34
2023-03-21T12:38:47.029Z,68.75
2023-03-21T12:42:47.251Z,68.68
2023-03-21T12:46:47.296Z,69.98
2023-03-21T12:50:47.466Z,71.32
2023-03-21T12:54:48.700Z,72.82
2023-03-21T12:58:48.320Z,85.43
2023-03-21T13:02:48.226Z,108.62
2023-03-21T13:06:47.825Z,119.95
2023-03-21T13:10:48.894Z,122.88
2023-03-21T13:14:48.940Z,121.24
2023-03-21T13:18:48.150Z,124.87
2023-03-21T13:22:48.317Z,121.65
2023-03-21T13:26:48.018Z,124.64
2023-03-21T13:30:48.085Z,112.20
2023-03-21T13:34:48.681Z,93.13
2023-03-21T13:38:49.882Z,91.09
2023-03-21T13:42:48.228Z,87.19
2023-03-21T13:46:53.946Z,74.33
2023-03-21T13:50:49.774Z,69.71
2023-03-21T13:54:48.309Z,55.46
2023-03-21T13:58:48.304Z,50.70
2023-03-21T14:02:48.095Z,78.88
2023-03-21T14:06:48.220Z,89.94
2023-03-21T14:10:48.730Z,71.98
2023-03-21T14:14:48.742Z,56.38
2023-03-21T14:18:53.851Z,45.67
2023-03-21T14:22:48.983Z,45.15
2023-03-21T14:26:48.038Z,43.38
2023-03-21T14:30:48.057Z,70.87
2023-03-21T14:34:48.028Z,82.81
2023-03-21T14:38:48.222Z,84.41
2023-03-21T14:42:50.776Z,77.83
2023-03-21T14:46:48.139Z,75.18
2023-03-21T14:50:47.923Z,77.83
2023-03-21T14:54:48.017Z,72.78
2023-03-21T14:58:47.931Z,77.26
2023-03-21T15:02:47.987Z,87.68
2023-03-21T15:06:47.751Z,97.54
2023-03-21T15:10:50.330Z,98.00
2023-03-21T15:14:47.713Z,100.31
2023-03-21T15:18:47.659Z,91.15
2023-03-21T15:22:47.582Z,89.71
2023-03-21T15:26:47.588Z,81.93
2023-03-21T15:30:47.609Z,94.56
2023-03-21T15:34:47.512Z,92.62
2023-03-21T15:38:47.447Z,92.59
2023-03-21T15:42:47.393Z,93.02
2023-03-21T15:46:47.454Z,98.64
2023-03-21T15:50:47.446Z,89.62
2023-03-21T15:54:47.408Z,100.81
2023-03-21T15:58:47.293Z,179.62
2023-03-21T16:02:47.387Z,138.26
2023-03-21T16:06:47.300Z,112.80
2023-03-21T16:10:47.207Z,103.79
2023-03-21T16:14:47.191Z,103.06
2023-03-21T16:18:47.157Z,107.91
2023-03-21T16:22:47.093Z,118.19
2023-03-21T16:26:47.856Z,115.30
2023-03-21T16:30:47.031Z,101.26
2023-03-21T16:34:47.006Z,99.38
2023-03-21T16:38:47.309Z,99.62
2023-03-21T16:42:47.044Z,101.06
2023-03-21T16:46:47.024Z,97.73
2023-03-21T16:50:46.930Z,96.56
2023-03-21T16:54:47.062Z,92.68
2023-03-21T16:58:46.973Z,89.88
2023-03-21T17:02:47.302Z,85.16
2023-03-21T17:06:47.266Z,83.78
2023-03-21T17:10:47.106Z,81.24
2023-03-21T17:14:47.133Z,80.41
2023-03-21T17:18:47.150Z,78.92
2023-03-21T17:22:47.120Z,84.35
2023-03-21T17:26:47.153Z,80.58
2023-03-21T17:30:47.256Z,78.15
2023-03-21T17:34:47.222Z,82.91
2023-03-21T17:38:47.272Z,76.56
2023-03-21T17:42:47.289Z,75.33
2023-03-21T17:46:49.037Z,76.24
2023-03-21T17:50:47.235Z,78.45
2023-03-21T17:54:47.204Z,76.91
2023-03-21T17:58:47.191Z,76.33
2023-03-21T18:02:47.147Z,77.42
2023-03-21T18:06:47.171Z,78.49
2023-03-21T18:10:47.078Z,79.72
2023-03-21T18:14:47.010Z,79.99
2023-03-21T18:18:46.990Z,77.97
2023-03-21T18:22:46.973Z,79.37
2023-03-21T18:26:46.933Z,77.31
2023-03-21T18:31:04.691Z,75.03
2023-03-21T18:34:47.847Z,75.86
2023-03-21T18:38:46.862Z,75.96
2023-03-21T18:43:41.353Z,73.41
2023-03-21T18:46:47.788Z,74.62
2023-03-21T18:50:46.699Z,71.49
2023-03-21T18:54:46.678Z,68.94
2023-03-21T18:58:46.660Z,68.01
2023-03-21T19:02:47.651Z,67.60
2023-03-21T19:06:46.571Z,66.08
2023-03-21T19:10:47.891Z,61.71
2023-03-21T19:14:46.556Z,63.03
2023-03-21T19:18:54.562Z,63.93
2023-03-21T19:22:47.439Z,61.27
2023-03-21T19:26:46.462Z,57.19
2023-03-21T19:30:50.410Z,57.62
2023-03-21T19:34:46.304Z,56.15
2023-03-21T19:38:46.340Z,53.72
2023-03-21T19:42:46.247Z,53.98
2023-03-21T19:46:46.175Z,52.13
2023-03-21T19:51:13.828Z,51.93
2023-03-21T19:54:47.144Z,51.11
2023-03-21T19:58:46.124Z,50.52
2023-03-21T20:02:46.166Z,50.37
2023-03-21T20:06:45.977Z,48.11
2023-03-21T20:10:45.942Z,49.34
2023-03-21T20:14:46.415Z,46.38
2023-03-21T20:18:45.899Z,44.86
2023-03-21T20:26:46.826Z,43.51
2023-03-21T20:30:45.792Z,42.13
2023-03-21T20:34:46.221Z,40.19
2023-03-21T20:38:45.714Z,37.37
2023-03-21T20:42:48.559Z,36.77
2023-03-21T20:46:45.690Z,34.86
2023-03-21T20:50:45.580Z,35.15
2023-03-21T20:54:45.536Z,35.01
2023-03-21T20:59:02.018Z,31.91
2023-03-21T21:02:46.501Z,31.49
2023-03-21T21:06:45.391Z,29.84
2023-03-21T21:11:19.056Z,30.81
2023-03-21T21:14:46.381Z,29.52
2023-03-21T21:18:45.318Z,25.55
2023-03-21T21:22:46.154Z,29.18
2023-03-21T21:26:46.496Z,28.73
2023-03-21T21:30:45.200Z,25.20
2023-03-21T21:34:45.175Z,29.50
2023-03-21T21:38:45.133Z,26.98
2023-03-21T21:42:45.131Z,25.98
2023-03-21T21:46:45.208Z,27.01
2023-03-21T21:50:45.216Z,27.62
2023-03-21T21:54:46.012Z,27.58
2023-03-21T21:58:45.302Z,25.21
2023-03-21T22:02:45.471Z,25.55
2023-03-21T22:06:45.441Z,30.95
2023-03-21T22:10:45.482Z,25.64
2023-03-21T22:14:46.430Z,27.02
2023-03-21T22:18:45.642Z,27.57
2023-03-21T22:22:45.742Z,25.81
2023-03-21T22:26:45.940Z,29.26
2023-03-21T22:30:45.808Z,25.71
2023-03-21T22:34:45.943Z,28.84
2023-03-21T22:38:46.006Z,26.75
2023-03-21T22:42:46.020Z,25.86
2023-03-21T22:46:46.412Z,25.28
2023-03-21T22:50:46.190Z,27.45
2023-03-21T22:54:46.247Z,29.03
2023-03-21T22:58:46.292Z,27.84
2023-03-21T23:02:46.466Z,26.41
2023-03-21T23:06:46.480Z,25.23
2023-03-21T23:10:46.529Z,29.83
2023-03-21T23:14:47.407Z,30.82
2023-03-21T23:18:46.759Z,28.07
2023-03-21T23:22:46.751Z,25.00
2023-03-21T23:26:46.767Z,25.53
2023-03-21T23:30:46.911Z,30.46
2023-03-21T23:34:47.976Z,28.07
2023-03-21T23:38:46.987Z,29.33
2023-03-21T23:42:47.065Z,28.24
2023-03-21T23:46:47.151Z,28.06
2023-03-21T23:50:47.212Z,27.40
2023-03-21T23:54:47.353Z,30.08
2023-03-21T23:58:47.257Z,26.58
